CheckWX is a tool to help pilots better visualize weather data.  It is not intended as a substitute for an official pre-flight weather briefing.

12:53:27 UTC

KAJZ METAR
Blake Field Airport
Delta, Colorado, USA
Current

18 mins ago

KAJZ 171235Z AUTO 00000KT 10SM CLR 15/07 A3007 RMK AO2 T01500074
Observed
Jun-17 @ 12:35 UTC
Visibility
10 SM
Flight Rules
VFR
Cloud Levels
  • Clear skies
Temperature
15°C / 59°F
Dewpoint
C / 45°F
Humidity
59%
Altimeter
30.07" Hg
Pressure
1018.32 hPa
Previous

38 mins ago

KAJZ 171215Z AUTO 00000KT 10SM CLR 13/07 A3007 RMK AO2 T01330067
Observed
Jun-17 @ 12:15 UTC
Visibility
10 SM
Flight Rules
VFR
Cloud Levels
  • Clear skies
Temperature
13°C / 55°F
Dewpoint
C / 45°F
Humidity
67%
Altimeter
30.07" Hg
Pressure
1018.32 hPa
Previous

58 mins ago

KAJZ 171155Z AUTO 00000KT 10SM CLR 14/07 A3006 RMK AO2 T01430065 10197 20140
Observed
Jun-17 @ 11:55 UTC
Visibility
10 SM
Flight Rules
VFR
Cloud Levels
  • Clear skies
Temperature
14°C / 57°F
Dewpoint
C / 45°F
Humidity
63%
Altimeter
30.06" Hg
Pressure
1017.92 hPa